Nyk Constellation — V7NP4 — position and weather

sailwx.info

Track history (hours):
 
Tides and Currents Weather Stations Pressure Air Temp Water Temp Dewpoint Dewpoint Depression Visibility Wind Speed Wind Dir Waves Ship Positions

Nyk Constellation

Last reported at 2018-Jun-09 13:56 UTC. Time now 2018-Jun-18 05:42 UTC.
Position N 34°49' E 139°51'.
Warning: this ship's position is 8 days out of date.

Length 294 m; draft 10.9 m.

Type: Cargo ship. MMSI: 538002992.

Date/timePositionNaut miles runAvg speedWind from/ knotsBaromVisibWave heightAir tempDewpointWater temp
2018-Jun-09 13:56N 34°49' E 139°51'920.3
2018-Jun-09 13:30N 34°56' E 139°44'1019.5
2018-Jun-09 13:00N 35°06' E 139°45'712.9
2018-Jun-09 12:29N 35°12' E 139°46'611.7
2018-Jun-09 12:00N 35°18' E 139°44'612.2
2018-Jun-09 11:31N 35°24' E 139°43'713.9
2018-Jun-09 11:00N 35°28' E 139°49'610.8
2018-Jun-09 10:29N 35°34' E 139°49'3 5.9
2018-Jun-09 10:00N 35°36' E 139°47'0 0.0
2018-Jun-09 06:07N 35°36' E 139°46'0 0.0
2018-Jun-09 05:43N 35°36' E 139°46'0 0.0
2018-Jun-09 05:28N 35°36' E 139°46'0 0.0
2018-Jun-09 04:58N 35°36' E 139°46'0 0.0
2018-Jun-09 04:28N 35°36' E 139°46'0 0.0
2018-Jun-09 03:58N 35°36' E 139°46'0 0.0
2018-Jun-09 03:28N 35°36' E 139°46'0 0.0
2018-Jun-09 02:58N 35°36' E 139°46'0 0.0
2018-Jun-09 02:28N 35°36' E 139°46'0 0.0
2018-Jun-09 01:58N 35°36' E 139°46'0 0.0
2018-Jun-09 01:28N 35°36' E 139°46'0 0.0
2018-Jun-09 00:58N 35°36' E 139°46'0 0.0
2018-Jun-09 00:28N 35°36' E 139°46'0 0.4
2018-Jun-09 00:00N 35°36' E 139°47'3 6.9
2018-Jun-08 23:30N 35°34' E 139°50'611.4
2018-Jun-08 23:00N 35°28' E 139°51'713.2
2018-Jun-08 22:30N 35°23' E 139°46'611.3
2018-Jun-08 22:01N 35°17' E 139°45'611.9
2018-Jun-08 21:30N 35°11' E 139°47'510.0
2018-Jun-08 21:00N 35°06' E 139°46'611.8
2018-Jun-08 20:31N 35°01' E 139°42'612.1
2018-Jun-08 19:59N 34°55' E 139°39'234 6.4
2018-Jun-07 07:24N 33°30' E 135°16'717.7
2018-Jun-07 07:00N 33°34' E 135°09'816.8
2018-Jun-07 06:30N 33°40' E 135°03'917.5
2018-Jun-07 06:00N 33°48' E 134°59'817.0
2018-Jun-07 05:30N 33°57' E 134°58'815.2
2018-Jun-07 05:00N 34°04' E 134°57'714.6
2018-Jun-07 04:31N 34°12' E 134°57'511.0
2018-Jun-07 04:01N 34°17' E 134°58'816.5
2018-Jun-07 03:31N 34°24' E 135°03'918.1
2018-Jun-07 03:01N 34°31' E 135°11'816.4
2018-Jun-07 02:30N 34°37' E 135°17'4 7.6
2018-Jun-07 02:00N 34°41' E 135°18'1 1.2
2018-Jun-07 01:30N 34°41' E 135°17'0 0.0
2018-Jun-07 01:00N 34°41' E 135°17'0 0.0
2018-Jun-07 00:30N 34°41' E 135°17'0 0.0
2018-Jun-07 00:00N 34°41' E 135°17'0 0.0
2018-Jun-06 23:30N 34°41' E 135°17'0 0.0
2018-Jun-06 23:00N 34°41' E 135°17'0 0.0
2018-Jun-06 22:30N 34°41' E 135°17'0 0.0
2018-Jun-06 22:01N 34°41' E 135°17'0 0.0
2018-Jun-06 21:30N 34°41' E 135°17'0 0.0
2018-Jun-06 20:54N 34°41' E 135°17'0 0.0
2018-Jun-06 20:30N 34°41' E 135°17'0 0.0
2018-Jun-06 20:00N 34°41' E 135°17'0 0.0
2018-Jun-06 19:30N 34°41' E 135°17'0 0.0
2018-Jun-06 19:00N 34°41' E 135°17'0 0.0
2018-Jun-06 18:30N 34°41' E 135°17'0 0.0
2018-Jun-06 18:00N 34°41' E 135°17'0 0.0
2018-Jun-06 17:30N 34°41' E 135°17'0 0.0
2018-Jun-06 17:00N 34°41' E 135°17'0 0.0
2018-Jun-06 16:30N 34°41' E 135°17'0 0.0
2018-Jun-06 16:00N 34°41' E 135°17'0 0.0
2018-Jun-06 15:30N 34°41' E 135°17'0 0.0
2018-Jun-06 15:00N 34°41' E 135°17'0 0.0
2018-Jun-06 14:30N 34°41' E 135°17'0 0.0
2018-Jun-06 14:00N 34°41' E 135°17'0 0.0
2018-Jun-06 13:30N 34°41' E 135°17'0 0.0
2018-Jun-06 13:00N 34°41' E 135°17'0 0.1
2018-Jun-06 12:30N 34°41' E 135°17'0 0.1
2018-Jun-06 12:00N 34°41' E 135°17'0 0.0
2018-Jun-06 11:30N 34°41' E 135°17'0 0.0
2018-Jun-06 11:00N 34°41' E 135°17'0 0.0
2018-Jun-06 10:30N 34°41' E 135°17'0 0.0
2018-Jun-06 10:00N 34°41' E 135°17'0 0.0
2018-Jun-06 09:30N 34°41' E 135°17'0 0.0
2018-Jun-06 09:00N 34°41' E 135°17'0 0.0
2018-Jun-06 08:30N 34°41' E 135°17'0 0.0
2018-Jun-06 07:57N 34°41' E 135°17'0 0.0
2018-Jun-06 07:30N 34°41' E 135°17'0 0.0
2018-Jun-06 07:00N 34°41' E 135°17'0 0.0
2018-Jun-06 06:30N 34°41' E 135°17'0 0.0
2018-Jun-06 06:00N 34°41' E 135°17'0 0.1
2018-Jun-06 05:30N 34°41' E 135°17'0 0.1
2018-Jun-06 05:00N 34°41' E 135°17'0 0.0
2018-Jun-06 04:30N 34°41' E 135°17'0 0.0
2018-Jun-06 04:00N 34°41' E 135°17'0 0.0
2018-Jun-06 03:30N 34°41' E 135°17'0 0.0
2018-Jun-06 03:00N 34°41' E 135°17'0 0.0
2018-Jun-06 02:30N 34°41' E 135°17'0 0.0
2018-Jun-06 02:00N 34°41' E 135°17'0 0.0
2018-Jun-06 01:30N 34°41' E 135°17'0 0.0
2018-Jun-06 01:00N 34°41' E 135°17'0 0.1
2018-Jun-06 00:30N 34°41' E 135°17'0 0.0
2018-Jun-06 00:00N 34°41' E 135°17'0 0.1
2018-Jun-05 23:30N 34°41' E 135°17'0 0.0
2018-Jun-05 23:00N 34°41' E 135°17'0 0.0
2018-Jun-05 22:30N 34°41' E 135°17'0 0.0
2018-Jun-05 22:00N 34°41' E 135°17'0 0.0
2018-Jun-05 21:27N 34°41' E 135°17'0 0.0
2018-Jun-05 21:00N 34°41' E 135°17'0 0.0
2018-Jun-05 20:30N 34°41' E 135°17'0 0.0
2018-Jun-05 20:00N 34°41' E 135°17'0 0.0
2018-Jun-05 19:30N 34°41' E 135°17'0 0.0
2018-Jun-05 19:00N 34°41' E 135°17'0 0.0
2018-Jun-05 18:30N 34°41' E 135°17'0 0.0
2018-Jun-05 18:00N 34°41' E 135°17'0 0.0
2018-Jun-05 17:30N 34°41' E 135°17'0 0.0
2018-Jun-05 17:00N 34°41' E 135°17'0 0.0
2018-Jun-05 16:30N 34°41' E 135°17'0 0.0
2018-Jun-05 16:00N 34°41' E 135°17'0 0.0
2018-Jun-05 15:30N 34°41' E 135°17'0 0.0
2018-Jun-05 15:00N 34°41' E 135°17'0 0.0
2018-Jun-05 14:30N 34°41' E 135°17'0 0.0
2018-Jun-05 14:00N 34°41' E 135°17'0 0.0
2018-Jun-05 13:30N 34°41' E 135°17'0 0.0
2018-Jun-05 12:57N 34°41' E 135°17'0 0.0
2018-Jun-05 12:30N 34°41' E 135°17'0 0.0
2018-Jun-05 12:00N 34°41' E 135°17'0 0.0
2018-Jun-05 11:30N 34°41' E 135°17'0 0.0
2018-Jun-05 11:00N 34°41' E 135°17'0 0.0
2018-Jun-05 10:30N 34°41' E 135°17'0 0.0
2018-Jun-05 10:00N 34°41' E 135°17'0 0.1
2018-Jun-05 09:30N 34°41' E 135°17'0 0.1
2018-Jun-05 09:00N 34°41' E 135°17'0 0.0
2018-Jun-05 08:30N 34°41' E 135°17'0 0.1
2018-Jun-05 07:57N 34°41' E 135°17'0 0.1
2018-Jun-05 07:30N 34°41' E 135°17'0 0.0
2018-Jun-05 07:00N 34°41' E 135°17'0 0.0
2018-Jun-05 06:30N 34°41' E 135°17'0 0.1
2018-Jun-05 06:00N 34°41' E 135°17'0 0.1
2018-Jun-05 05:27N 34°41' E 135°17'0 0.0
2018-Jun-05 05:00N 34°41' E 135°17'0 0.0
2018-Jun-05 04:30N 34°41' E 135°17'0 0.0
2018-Jun-05 04:00N 34°41' E 135°17'0 0.0
2018-Jun-05 03:30N 34°41' E 135°17'0 0.0
2018-Jun-05 03:00N 34°41' E 135°17'0 0.0
2018-Jun-05 02:30N 34°41' E 135°17'0 0.0
2018-Jun-05 02:00N 34°41' E 135°17'0 0.0
2018-Jun-05 01:30N 34°41' E 135°17'0 0.1
2018-Jun-05 01:00N 34°41' E 135°17'0 0.1
2018-Jun-05 00:30N 34°41' E 135°17'0 0.0
2018-Jun-05 00:00N 34°41' E 135°17'0 0.0
2018-Jun-04 23:30N 34°41' E 135°17'0 0.0
2018-Jun-04 23:00N 34°41' E 135°17'0 0.0
2018-Jun-04 22:30N 34°41' E 135°17'0 0.0
2018-Jun-04 22:00N 34°41' E 135°17'0 0.0
2018-Jun-04 21:30N 34°41' E 135°17'0 0.0
2018-Jun-04 21:00N 34°41' E 135°17'0 0.0
2018-Jun-04 20:30N 34°41' E 135°17'0 0.0
2018-Jun-04 20:00N 34°41' E 135°17'0 0.0
2018-Jun-04 19:30N 34°41' E 135°17'0 0.0
2018-Jun-04 19:00N 34°41' E 135°17'0 0.0
2018-Jun-04 18:30N 34°41' E 135°17'0 0.0
2018-Jun-04 18:00N 34°41' E 135°17'0 0.0
2018-Jun-04 17:30N 34°41' E 135°17'0 0.0
2018-Jun-04 17:00N 34°41' E 135°17'0 0.0
2018-Jun-04 16:30N 34°41' E 135°17'0 0.0
2018-Jun-04 16:00N 34°41' E 135°17'0 0.0
2018-Jun-04 15:30N 34°41' E 135°17'0 0.0
2018-Jun-04 15:00N 34°41' E 135°17'0 0.0
2018-Jun-04 14:30N 34°41' E 135°17'0 0.0
2018-Jun-04 14:00N 34°41' E 135°17'0 0.0
2018-Jun-04 13:30N 34°41' E 135°17'0 0.0
2018-Jun-04 13:00N 34°41' E 135°17'0 0.0
2018-Jun-04 12:30N 34°41' E 135°17'0 0.1
2018-Jun-04 12:00N 34°41' E 135°17'0 0.1
2018-Jun-04 11:30N 34°41' E 135°17'0 0.0
2018-Jun-04 11:00N 34°41' E 135°17'0 0.0
2018-Jun-04 10:30N 34°41' E 135°17'0 0.0
2018-Jun-04 10:00N 34°41' E 135°17'0 0.0
2018-Jun-04 09:30N 34°41' E 135°17'0 0.0
2018-Jun-04 09:00N 34°41' E 135°17'0 0.0
2018-Jun-04 08:30N 34°41' E 135°17'0 0.0
2018-Jun-04 08:00N 34°41' E 135°17'0 0.0
2018-Jun-04 07:30N 34°41' E 135°17'0 0.0
2018-Jun-04 06:57N 34°41' E 135°17'0 0.3
2018-Jun-04 06:30N 34°41' E 135°17'2 3.7
2018-Jun-04 06:00N 34°41' E 135°15'1 1.8
2018-Jun-04 05:30N 34°42' E 135°14'0 0.0
2018-Jun-04 05:00N 34°42' E 135°14'0 0.0
2018-Jun-04 04:30N 34°42' E 135°14'0 0.0
2018-Jun-04 04:00N 34°42' E 135°14'0 0.0
2018-Jun-04 03:30N 34°42' E 135°14'0 0.0
2018-Jun-04 03:00N 34°42' E 135°14'0 0.0
2018-Jun-04 02:30N 34°42' E 135°14'0 0.0
2018-Jun-04 02:00N 34°42' E 135°14'0 0.0
2018-Jun-04 01:30N 34°42' E 135°14'0 0.0
2018-Jun-04 00:54N 34°42' E 135°14'0 0.0
2018-Jun-04 00:30N 34°42' E 135°14'0 0.0
2018-Jun-04 00:00N 34°42' E 135°14'0 0.0
2018-Jun-03 23:30N 34°42' E 135°14'0 0.0
2018-Jun-03 23:00N 34°42' E 135°14'0 0.0
2018-Jun-03 22:30N 34°42' E 135°14'0 0.0
2018-Jun-03 22:00N 34°42' E 135°14'0 0.0
2018-Jun-03 21:30N 34°42' E 135°14'0 0.0
2018-Jun-03 21:00N 34°42' E 135°14'0 0.0
2018-Jun-03 20:30N 34°42' E 135°14'0 0.0
2018-Jun-03 20:00N 34°42' E 135°14'0 0.0
2018-Jun-03 19:30N 34°42' E 135°14'0 0.0
2018-Jun-03 19:00N 34°42' E 135°14'0 0.0
2018-Jun-03 18:30N 34°42' E 135°14'0 0.0
2018-Jun-03 18:00N 34°42' E 135°14'0 0.0
2018-Jun-03 17:30N 34°42' E 135°14'0 0.0
2018-Jun-03 17:00N 34°42' E 135°14'0 0.0
2018-Jun-03 16:30N 34°42' E 135°14'0 0.0
2018-Jun-03 16:00N 34°42' E 135°14'0 0.0
2018-Jun-03 15:30N 34°42' E 135°14'0 0.0
2018-Jun-03 15:00N 34°42' E 135°14'0 0.0
2018-Jun-03 14:30N 34°42' E 135°14'0 0.0
2018-Jun-03 14:00N 34°42' E 135°14'0 0.0
2018-Jun-03 13:24N 34°42' E 135°14'0 0.0
2018-Jun-03 13:00N 34°42' E 135°14'0 0.0
2018-Jun-03 12:30N 34°42' E 135°14'0 0.0
2018-Jun-03 12:00N 34°42' E 135°14'0 0.0
2018-Jun-03 11:30N 34°42' E 135°14'0 0.0
2018-Jun-03 11:00N 34°42' E 135°14'0 0.0
2018-Jun-03 10:30N 34°42' E 135°14'0 0.0
2018-Jun-03 10:00N 34°42' E 135°14'0 0.0
2018-Jun-03 09:30N 34°42' E 135°14'0 0.0
2018-Jun-03 09:00N 34°42' E 135°14'0 0.0
2018-Jun-03 08:30N 34°42' E 135°14'0 0.0
2018-Jun-03 08:00N 34°42' E 135°14'0 0.0
2018-Jun-03 07:30N 34°42' E 135°14'0 0.0
2018-Jun-03 07:00N 34°42' E 135°14'0 0.0
2018-Jun-03 06:30N 34°42' E 135°14'0 0.0
2018-Jun-03 06:00N 34°42' E 135°14'0 0.0
2018-Jun-03 05:30N 34°42' E 135°14'0 0.0
2018-Jun-03 05:00N 34°42' E 135°14'0 0.0
2018-Jun-03 04:30N 34°42' E 135°14'0 0.0
2018-Jun-03 04:00N 34°42' E 135°14'0 0.0
2018-Jun-03 03:30N 34°42' E 135°14'0 0.0
2018-Jun-03 03:00N 34°42' E 135°14'0 0.0
2018-Jun-03 02:30N 34°42' E 135°14'0 0.0
2018-Jun-03 02:00N 34°42' E 135°14'0 0.0
2018-Jun-03 01:30N 34°42' E 135°14'0 0.0
2018-Jun-03 01:00N 34°42' E 135°14'0 0.0
2018-Jun-03 00:30N 34°42' E 135°14'0 0.0
2018-Jun-03 00:00N 34°42' E 135°14'0 0.0
2018-Jun-02 23:30N 34°42' E 135°14'0 0.0
2018-Jun-02 23:00N 34°42' E 135°14'0 0.0
2018-Jun-02 22:30N 34°42' E 135°14'0 0.0
2018-Jun-02 22:00N 34°42' E 135°14'0 0.0
2018-Jun-02 21:30N 34°42' E 135°14'0 0.0
2018-Jun-02 21:00N 34°42' E 135°14'0 0.0
2018-Jun-02 20:30N 34°42' E 135°14'0 0.0
2018-Jun-02 20:00N 34°42' E 135°14'0 0.0
2018-Jun-02 19:30N 34°42' E 135°14'0 0.0
2018-Jun-02 19:00N 34°42' E 135°14'0 0.0
2018-Jun-02 18:30N 34°42' E 135°14'0 0.0
2018-Jun-02 18:00N 34°42' E 135°14'0 0.0
2018-Jun-02 17:30N 34°42' E 135°14'0 0.0
2018-Jun-02 17:00N 34°42' E 135°14'0 0.0
2018-Jun-02 16:30N 34°42' E 135°14'0 0.0
2018-Jun-02 16:00N 34°42' E 135°14'0 0.0
2018-Jun-02 15:30N 34°42' E 135°14'0 0.0
2018-Jun-02 15:00N 34°42' E 135°14'0 0.0
2018-Jun-02 14:30N 34°42' E 135°14'0 0.0
2018-Jun-02 14:00N 34°42' E 135°14'0 0.0
2018-Jun-02 13:27N 34°42' E 135°14'0 0.0
2018-Jun-02 13:00N 34°42' E 135°14'0 0.0
2018-Jun-02 12:30N 34°42' E 135°14'0 0.0
2018-Jun-02 12:00N 34°42' E 135°14'0 0.0
2018-Jun-02 11:30N 34°42' E 135°14'0 0.0
2018-Jun-02 11:00N 34°42' E 135°14'0 0.0
2018-Jun-02 10:30N 34°42' E 135°14'0 0.0
2018-Jun-02 10:00N 34°42' E 135°14'0 0.0
2018-Jun-02 09:30N 34°42' E 135°14'0 0.0
2018-Jun-02 09:00N 34°42' E 135°14'0 0.0
2018-Jun-02 08:30N 34°42' E 135°14'0 0.0
2018-Jun-02 07:57N 34°42' E 135°14'0 0.0
2018-Jun-02 07:30N 34°42' E 135°14'0 0.0
2018-Jun-02 07:00N 34°42' E 135°14'0 0.0
2018-Jun-02 06:30N 34°42' E 135°14'0 0.0
2018-Jun-02 06:00N 34°42' E 135°14'0 0.0
2018-Jun-02 05:30N 34°42' E 135°14'0 0.0
2018-Jun-02 04:54N 34°42' E 135°14'0 0.0
2018-Jun-02 04:30N 34°42' E 135°14'0 0.0
2018-Jun-02 04:00N 34°42' E 135°14'0 0.0
2018-Jun-02 03:30N 34°42' E 135°14'0 0.0
2018-Jun-02 03:00N 34°42' E 135°14'0 0.0
2018-Jun-02 02:30N 34°42' E 135°14'0 0.0
2018-Jun-02 01:57N 34°42' E 135°14'0 0.0
2018-Jun-02 01:30N 34°42' E 135°14'0 0.0
2018-Jun-02 01:00N 34°42' E 135°14'0 0.0
2018-Jun-02 00:30N 34°42' E 135°14'0 0.0
2018-Jun-02 00:00N 34°42' E 135°14'0 0.0
2018-Jun-01 23:30N 34°42' E 135°14'0 0.0
2018-Jun-01 23:00N 34°42' E 135°14'0 0.0
2018-Jun-01 22:30N 34°42' E 135°14'0 0.0
2018-Jun-01 22:00N 34°42' E 135°14'0 0.0
2018-Jun-01 21:30N 34°42' E 135°14'0 0.0
2018-Jun-01 21:00N 34°42' E 135°14'0 0.0
2018-Jun-01 20:30N 34°42' E 135°14'0 0.0
2018-Jun-01 20:00N 34°42' E 135°14'0 0.0
2018-Jun-01 19:30N 34°42' E 135°14'0 0.0
2018-Jun-01 19:00N 34°42' E 135°14'0 0.0
2018-Jun-01 18:30N 34°42' E 135°14'0 0.0
2018-Jun-01 18:00N 34°42' E 135°14'0 0.0
2018-Jun-01 17:30N 34°42' E 135°14'0 0.0
2018-Jun-01 17:00N 34°42' E 135°14'0 0.0
2018-Jun-01 16:30N 34°42' E 135°14'0 0.0
2018-Jun-01 16:00N 34°42' E 135°14'0 0.0
2018-Jun-01 15:30N 34°42' E 135°14'0 0.0
2018-Jun-01 15:00N 34°42' E 135°14'0 0.0
2018-Jun-01 14:30N 34°42' E 135°14'0 0.0
2018-Jun-01 14:00N 34°42' E 135°14'0 0.0
2018-Jun-01 13:30N 34°42' E 135°14'0 0.0
2018-Jun-01 13:00N 34°42' E 135°14'0 0.0
2018-Jun-01 12:30N 34°42' E 135°14'0 0.0
2018-Jun-01 12:00N 34°42' E 135°14'0 0.0
2018-Jun-01 11:30N 34°42' E 135°14'0 0.0
2018-Jun-01 11:00N 34°42' E 135°14'0 0.0
2018-Jun-01 10:24N 34°42' E 135°14'0 0.0
2018-Jun-01 10:00N 34°42' E 135°14'0 0.0
2018-Jun-01 09:21N 34°42' E 135°14'0 0.0
2018-Jun-01 08:54N 34°42' E 135°14'0 0.0
2018-Jun-01 08:24N 34°42' E 135°14'0 0.0
2018-Jun-01 08:00N 34°42' E 135°14'0 0.0
2018-Jun-01 07:30N 34°42' E 135°14'0 0.0
2018-Jun-01 07:00N 34°42' E 135°14'0 0.0
2018-Jun-01 06:30N 34°42' E 135°14'0 0.0
2018-Jun-01 06:00N 34°42' E 135°14'0 0.0
2018-Jun-01 05:30N 34°42' E 135°14'0 0.0
2018-Jun-01 05:00N 34°42' E 135°14'0 0.0
2018-Jun-01 04:30N 34°42' E 135°14'0 0.0
2018-Jun-01 04:00N 34°42' E 135°14'0 0.0
2018-Jun-01 03:30N 34°42' E 135°14'0 0.0
2018-Jun-01 03:00N 34°42' E 135°14'0 0.0
2018-Jun-01 02:30N 34°42' E 135°14'0 0.0
2018-Jun-01 02:00N 34°42' E 135°14'0 0.0
2018-Jun-01 01:30N 34°42' E 135°14'0 0.0
2018-Jun-01 01:00N 34°42' E 135°14'0 0.0
2018-Jun-01 00:30N 34°42' E 135°14'0 0.0
2018-Jun-01 00:00N 34°42' E 135°14'0 0.0
2018-May-31 23:30N 34°42' E 135°14'0 0.0
2018-May-31 23:00N 34°42' E 135°14'0 0.0
2018-May-31 22:30N 34°42' E 135°14'0 0.0
2018-May-31 22:00N 34°42' E 135°14'0 0.0
2018-May-31 21:30N 34°42' E 135°14'0 0.0
2018-May-31 21:00N 34°42' E 135°14'0 0.0
2018-May-31 20:30N 34°42' E 135°14'0 0.0
2018-May-31 20:00N 34°42' E 135°14'0 0.0
2018-May-31 19:30N 34°42' E 135°14'0 0.0
2018-May-31 19:00N 34°42' E 135°14'0 0.0
2018-May-31 18:30N 34°42' E 135°14'0 0.0
2018-May-31 18:00N 34°42' E 135°14'0 0.0
2018-May-31 17:30N 34°42' E 135°14'0 0.0
2018-May-31 17:00N 34°42' E 135°14'0 0.0
2018-May-31 16:30N 34°42' E 135°14'0 0.0
2018-May-31 16:00N 34°42' E 135°14'0 0.0
2018-May-31 15:30N 34°42' E 135°14'0 0.0
2018-May-31 15:00N 34°42' E 135°14'0 0.0
2018-May-31 14:24N 34°42' E 135°14'0 0.0
2018-May-31 14:00N 34°42' E 135°14'0 0.0
2018-May-31 13:30N 34°42' E 135°14'0 0.0
2018-May-31 13:00N 34°42' E 135°14'0 0.0
2018-May-31 12:30N 34°42' E 135°14'0 0.0
2018-May-31 12:00N 34°42' E 135°14'0 0.0
2018-May-31 11:30N 34°42' E 135°14'0 0.0
2018-May-31 11:00N 34°42' E 135°14'0 0.0
2018-May-31 10:30N 34°42' E 135°14'0 0.0
2018-May-31 10:00N 34°42' E 135°14'0 0.0
2018-May-31 09:30N 34°42' E 135°14'0 0.0
2018-May-31 09:00N 34°42' E 135°14'0 0.0
2018-May-31 08:30N 34°42' E 135°14'0 0.0
2018-May-31 08:00N 34°42' E 135°14'0 0.0
2018-May-31 07:30N 34°42' E 135°14'0 0.0
2018-May-31 07:00N 34°42' E 135°14'0 0.0
2018-May-31 06:30N 34°42' E 135°14'0 0.0
2018-May-31 06:00N 34°42' E 135°14'0 0.0
2018-May-31 05:30N 34°42' E 135°14'0 0.0
2018-May-31 05:00N 34°42' E 135°14'0 0.0
2018-May-31 04:30N 34°42' E 135°14'0 0.0
2018-May-31 04:00N 34°42' E 135°14'0 0.0
2018-May-31 03:30N 34°42' E 135°14'0 0.0
2018-May-31 03:00N 34°42' E 135°14'0 0.0
2018-May-31 02:30N 34°42' E 135°14'0 0.0
2018-May-31 02:00N 34°42' E 135°14'0 0.0
2018-May-31 01:30N 34°42' E 135°14'0 0.0
2018-May-31 01:00N 34°42' E 135°14'0 0.0
2018-May-31 00:30N 34°42' E 135°14'0 0.0
2018-May-31 00:00N 34°42' E 135°14'0 0.0
2018-May-30 23:30N 34°42' E 135°14'0 0.0
2018-May-30 23:00N 34°42' E 135°14'0 0.0
2018-May-30 22:30N 34°42' E 135°14'0 0.0
2018-May-30 22:00N 34°42' E 135°14'0 0.0
2018-May-30 21:30N 34°42' E 135°14'0 0.0
2018-May-30 21:00N 34°42' E 135°14'0 0.0
2018-May-30 20:30N 34°42' E 135°14'0 0.0
2018-May-30 20:00N 34°42' E 135°14'0 0.0
2018-May-30 19:30N 34°42' E 135°14'0 0.0
2018-May-30 19:00N 34°42' E 135°14'0 0.0
2018-May-30 18:30N 34°42' E 135°14'0 0.0
2018-May-30 18:00N 34°42' E 135°14'0 0.0
2018-May-30 17:24N 34°42' E 135°14'0 0.0
2018-May-30 17:00N 34°42' E 135°14'0 0.0
2018-May-30 16:30N 34°42' E 135°14'0 0.0
2018-May-30 16:00N 34°42' E 135°14'0 0.0
2018-May-30 15:30N 34°42' E 135°14'0 0.0
2018-May-30 15:00N 34°42' E 135°14'0 0.0
2018-May-30 14:30N 34°42' E 135°14'0 0.0
2018-May-30 14:00N 34°42' E 135°14'  
Track history (hours):
 
Tides and Currents Weather Stations Pressure Air Temp Water Temp Dewpoint Dewpoint Depression Visibility Wind Speed Wind Dir Waves Ship Positions

Nyk Constellation

Last reported at 2018-Jun-09 13:56 UTC. Time now 2018-Jun-18 05:42 UTC.
Position N 34°49' E 139°51'.
Warning: this ship's position is 8 days out of date.

Length 294 m; draft 10.9 m.

Type: Cargo ship. MMSI: 538002992.

Date/timePositionNaut miles runAvg speedWind from/ knotsBaromVisibWave heightAir tempDewpointWater temp
2018-Jun-09 13:56N 34°49' E 139°51'920.3
2018-Jun-09 13:30N 34°56' E 139°44'1019.5
2018-Jun-09 13:00N 35°06' E 139°45'712.9
2018-Jun-09 12:29N 35°12' E 139°46'611.7
2018-Jun-09 12:00N 35°18' E 139°44'612.2
2018-Jun-09 11:31N 35°24' E 139°43'713.9
2018-Jun-09 11:00N 35°28' E 139°49'610.8
2018-Jun-09 10:29N 35°34' E 139°49'3 5.9
2018-Jun-09 10:00N 35°36' E 139°47'0 0.0
2018-Jun-09 06:07N 35°36' E 139°46'0 0.0
2018-Jun-09 05:43N 35°36' E 139°46'0 0.0
2018-Jun-09 05:28N 35°36' E 139°46'0 0.0
2018-Jun-09 04:58N 35°36' E 139°46'0 0.0
2018-Jun-09 04:28N 35°36' E 139°46'0 0.0
2018-Jun-09 03:58N 35°36' E 139°46'0 0.0
2018-Jun-09 03:28N 35°36' E 139°46'0 0.0
2018-Jun-09 02:58N 35°36' E 139°46'0 0.0
2018-Jun-09 02:28N 35°36' E 139°46'0 0.0
2018-Jun-09 01:58N 35°36' E 139°46'0 0.0
2018-Jun-09 01:28N 35°36' E 139°46'0 0.0
2018-Jun-09 00:58N 35°36' E 139°46'0 0.0
2018-Jun-09 00:28N 35°36' E 139°46'0 0.4
2018-Jun-09 00:00N 35°36' E 139°47'3 6.9
2018-Jun-08 23:30N 35°34' E 139°50'611.4
2018-Jun-08 23:00N 35°28' E 139°51'713.2
2018-Jun-08 22:30N 35°23' E 139°46'611.3
2018-Jun-08 22:01N 35°17' E 139°45'611.9
2018-Jun-08 21:30N 35°11' E 139°47'510.0
2018-Jun-08 21:00N 35°06' E 139°46'611.8
2018-Jun-08 20:31N 35°01' E 139°42'612.1
2018-Jun-08 19:59N 34°55' E 139°39'234 6.4
2018-Jun-07 07:24N 33°30' E 135°16'717.7
2018-Jun-07 07:00N 33°34' E 135°09'816.8
2018-Jun-07 06:30N 33°40' E 135°03'917.5
2018-Jun-07 06:00N 33°48' E 134°59'817.0
2018-Jun-07 05:30N 33°57' E 134°58'815.2
2018-Jun-07 05:00N 34°04' E 134°57'714.6
2018-Jun-07 04:31N 34°12' E 134°57'511.0
2018-Jun-07 04:01N 34°17' E 134°58'816.5
2018-Jun-07 03:31N 34°24' E 135°03'918.1
2018-Jun-07 03:01N 34°31' E 135°11'816.4
2018-Jun-07 02:30N 34°37' E 135°17'4 7.6
2018-Jun-07 02:00N 34°41' E 135°18'1 1.2
2018-Jun-07 01:30N 34°41' E 135°17'0 0.0
2018-Jun-07 01:00N 34°41' E 135°17'0 0.0
2018-Jun-07 00:30N 34°41' E 135°17'0 0.0
2018-Jun-07 00:00N 34°41' E 135°17'0 0.0
2018-Jun-06 23:30N 34°41' E 135°17'0 0.0
2018-Jun-06 23:00N 34°41' E 135°17'0 0.0
2018-Jun-06 22:30N 34°41' E 135°17'0 0.0
2018-Jun-06 22:01N 34°41' E 135°17'0 0.0
2018-Jun-06 21:30N 34°41' E 135°17'0 0.0
2018-Jun-06 20:54N 34°41' E 135°17'0 0.0
2018-Jun-06 20:30N 34°41' E 135°17'0 0.0
2018-Jun-06 20:00N 34°41' E 135°17'0 0.0
2018-Jun-06 19:30N 34°41' E 135°17'0 0.0
2018-Jun-06 19:00N 34°41' E 135°17'0 0.0
2018-Jun-06 18:30N 34°41' E 135°17'0 0.0
2018-Jun-06 18:00N 34°41' E 135°17'0 0.0
2018-Jun-06 17:30N 34°41' E 135°17'0 0.0
2018-Jun-06 17:00N 34°41' E 135°17'0 0.0
2018-Jun-06 16:30N 34°41' E 135°17'0 0.0
2018-Jun-06 16:00N 34°41' E 135°17'0 0.0
2018-Jun-06 15:30N 34°41' E 135°17'0 0.0
2018-Jun-06 15:00N 34°41' E 135°17'0 0.0
2018-Jun-06 14:30N 34°41' E 135°17'0 0.0
2018-Jun-06 14:00N 34°41' E 135°17'0 0.0
2018-Jun-06 13:30N 34°41' E 135°17'0 0.0
2018-Jun-06 13:00N 34°41' E 135°17'0 0.1
2018-Jun-06 12:30N 34°41' E 135°17'0 0.1
2018-Jun-06 12:00N 34°41' E 135°17'0 0.0
2018-Jun-06 11:30N 34°41' E 135°17'0 0.0
2018-Jun-06 11:00N 34°41' E 135°17'0 0.0
2018-Jun-06 10:30N 34°41' E 135°17'0 0.0
2018-Jun-06 10:00N 34°41' E 135°17'0 0.0
2018-Jun-06 09:30N 34°41' E 135°17'0 0.0
2018-Jun-06 09:00N 34°41' E 135°17'0 0.0
2018-Jun-06 08:30N 34°41' E 135°17'0 0.0
2018-Jun-06 07:57N 34°41' E 135°17'0 0.0
2018-Jun-06 07:30N 34°41' E 135°17'0 0.0
2018-Jun-06 07:00N 34°41' E 135°17'0 0.0
2018-Jun-06 06:30N 34°41' E 135°17'0 0.0
2018-Jun-06 06:00N 34°41' E 135°17'0 0.1
2018-Jun-06 05:30N 34°41' E 135°17'0 0.1
2018-Jun-06 05:00N 34°41' E 135°17'0 0.0
2018-Jun-06 04:30N 34°41' E 135°17'0 0.0
2018-Jun-06 04:00N 34°41' E 135°17'0 0.0
2018-Jun-06 03:30N 34°41' E 135°17'0 0.0
2018-Jun-06 03:00N 34°41' E 135°17'0 0.0
2018-Jun-06 02:30N 34°41' E 135°17'0 0.0
2018-Jun-06 02:00N 34°41' E 135°17'0 0.0
2018-Jun-06 01:30N 34°41' E 135°17'0 0.0
2018-Jun-06 01:00N 34°41' E 135°17'0 0.1
2018-Jun-06 00:30N 34°41' E 135°17'0 0.0
2018-Jun-06 00:00N 34°41' E 135°17'0 0.1
2018-Jun-05 23:30N 34°41' E 135°17'0 0.0
2018-Jun-05 23:00N 34°41' E 135°17'0 0.0
2018-Jun-05 22:30N 34°41' E 135°17'0 0.0
2018-Jun-05 22:00N 34°41' E 135°17'0 0.0
2018-Jun-05 21:27N 34°41' E 135°17'0 0.0
2018-Jun-05 21:00N 34°41' E 135°17'0 0.0
2018-Jun-05 20:30N 34°41' E 135°17'0 0.0
2018-Jun-05 20:00N 34°41' E 135°17'0 0.0
2018-Jun-05 19:30N 34°41' E 135°17'0 0.0
2018-Jun-05 19:00N 34°41' E 135°17'0 0.0
2018-Jun-05 18:30N 34°41' E 135°17'0 0.0
2018-Jun-05 18:00N 34°41' E 135°17'0 0.0
2018-Jun-05 17:30N 34°41' E 135°17'0 0.0
2018-Jun-05 17:00N 34°41' E 135°17'0 0.0
2018-Jun-05 16:30N 34°41' E 135°17'0 0.0
2018-Jun-05 16:00N 34°41' E 135°17'0 0.0
2018-Jun-05 15:30N 34°41' E 135°17'0 0.0
2018-Jun-05 15:00N 34°41' E 135°17'0 0.0
2018-Jun-05 14:30N 34°41' E 135°17'0 0.0
2018-Jun-05 14:00N 34°41' E 135°17'0 0.0
2018-Jun-05 13:30N 34°41' E 135°17'0 0.0
2018-Jun-05 12:57N 34°41' E 135°17'0 0.0
2018-Jun-05 12:30N 34°41' E 135°17'0 0.0
2018-Jun-05 12:00N 34°41' E 135°17'0 0.0
2018-Jun-05 11:30N 34°41' E 135°17'0 0.0
2018-Jun-05 11:00N 34°41' E 135°17'0 0.0
2018-Jun-05 10:30N 34°41' E 135°17'0 0.0
2018-Jun-05 10:00N 34°41' E 135°17'0 0.1
2018-Jun-05 09:30N 34°41' E 135°17'0 0.1
2018-Jun-05 09:00N 34°41' E 135°17'0 0.0
2018-Jun-05 08:30N 34°41' E 135°17'0 0.1
2018-Jun-05 07:57N 34°41' E 135°17'0 0.1
2018-Jun-05 07:30N 34°41' E 135°17'0 0.0
2018-Jun-05 07:00N 34°41' E 135°17'0 0.0
2018-Jun-05 06:30N 34°41' E 135°17'0 0.1
2018-Jun-05 06:00N 34°41' E 135°17'0 0.1
2018-Jun-05 05:27N 34°41' E 135°17'0 0.0
2018-Jun-05 05:00N 34°41' E 135°17'0 0.0
2018-Jun-05 04:30N 34°41' E 135°17'0 0.0
2018-Jun-05 04:00N 34°41' E 135°17'0 0.0
2018-Jun-05 03:30N 34°41' E 135°17'0 0.0
2018-Jun-05 03:00N 34°41' E 135°17'0 0.0
2018-Jun-05 02:30N 34°41' E 135°17'0 0.0
2018-Jun-05 02:00N 34°41' E 135°17'0 0.0
2018-Jun-05 01:30N 34°41' E 135°17'0 0.1
2018-Jun-05 01:00N 34°41' E 135°17'0 0.1
2018-Jun-05 00:30N 34°41' E 135°17'0 0.0
2018-Jun-05 00:00N 34°41' E 135°17'0 0.0
2018-Jun-04 23:30N 34°41' E 135°17'0 0.0
2018-Jun-04 23:00N 34°41' E 135°17'0 0.0
2018-Jun-04 22:30N 34°41' E 135°17'0 0.0
2018-Jun-04 22:00N 34°41' E 135°17'0 0.0
2018-Jun-04 21:30N 34°41' E 135°17'0 0.0
2018-Jun-04 21:00N 34°41' E 135°17'0 0.0
2018-Jun-04 20:30N 34°41' E 135°17'0 0.0
2018-Jun-04 20:00N 34°41' E 135°17'0 0.0
2018-Jun-04 19:30N 34°41' E 135°17'0 0.0
2018-Jun-04 19:00N 34°41' E 135°17'0 0.0
2018-Jun-04 18:30N 34°41' E 135°17'0 0.0
2018-Jun-04 18:00N 34°41' E 135°17'0 0.0
2018-Jun-04 17:30N 34°41' E 135°17'0 0.0
2018-Jun-04 17:00N 34°41' E 135°17'0 0.0
2018-Jun-04 16:30N 34°41' E 135°17'0 0.0
2018-Jun-04 16:00N 34°41' E 135°17'0 0.0
2018-Jun-04 15:30N 34°41' E 135°17'0 0.0
2018-Jun-04 15:00N 34°41' E 135°17'0 0.0
2018-Jun-04 14:30N 34°41' E 135°17'0 0.0
2018-Jun-04 14:00N 34°41' E 135°17'0 0.0
2018-Jun-04 13:30N 34°41' E 135°17'0 0.0
2018-Jun-04 13:00N 34°41' E 135°17'0 0.0
2018-Jun-04 12:30N 34°41' E 135°17'0 0.1
2018-Jun-04 12:00N 34°41' E 135°17'0 0.1
2018-Jun-04 11:30N 34°41' E 135°17'0 0.0
2018-Jun-04 11:00N 34°41' E 135°17'0 0.0
2018-Jun-04 10:30N 34°41' E 135°17'0 0.0
2018-Jun-04 10:00N 34°41' E 135°17'0 0.0
2018-Jun-04 09:30N 34°41' E 135°17'0 0.0
2018-Jun-04 09:00N 34°41' E 135°17'0 0.0
2018-Jun-04 08:30N 34°41' E 135°17'0 0.0
2018-Jun-04 08:00N 34°41' E 135°17'0 0.0
2018-Jun-04 07:30N 34°41' E 135°17'0 0.0
2018-Jun-04 06:57N 34°41' E 135°17'0 0.3
2018-Jun-04 06:30N 34°41' E 135°17'2 3.7
2018-Jun-04 06:00N 34°41' E 135°15'1 1.8
2018-Jun-04 05:30N 34°42' E 135°14'0 0.0
2018-Jun-04 05:00N 34°42' E 135°14'0 0.0
2018-Jun-04 04:30N 34°42' E 135°14'0 0.0
2018-Jun-04 04:00N 34°42' E 135°14'0 0.0
2018-Jun-04 03:30N 34°42' E 135°14'0 0.0
2018-Jun-04 03:00N 34°42' E 135°14'0 0.0
2018-Jun-04 02:30N 34°42' E 135°14'0 0.0
2018-Jun-04 02:00N 34°42' E 135°14'0 0.0
2018-Jun-04 01:30N 34°42' E 135°14'0 0.0
2018-Jun-04 00:54N 34°42' E 135°14'0 0.0
2018-Jun-04 00:30N 34°42' E 135°14'0 0.0
2018-Jun-04 00:00N 34°42' E 135°14'0 0.0
2018-Jun-03 23:30N 34°42' E 135°14'0 0.0
2018-Jun-03 23:00N 34°42' E 135°14'0 0.0
2018-Jun-03 22:30N 34°42' E 135°14'0 0.0
2018-Jun-03 22:00N 34°42' E 135°14'0 0.0
2018-Jun-03 21:30N 34°42' E 135°14'0 0.0
2018-Jun-03 21:00N 34°42' E 135°14'0 0.0
2018-Jun-03 20:30N 34°42' E 135°14'0 0.0
2018-Jun-03 20:00N 34°42' E 135°14'0 0.0
2018-Jun-03 19:30N 34°42' E 135°14'0 0.0
2018-Jun-03 19:00N 34°42' E 135°14'0 0.0
2018-Jun-03 18:30N 34°42' E 135°14'0 0.0
2018-Jun-03 18:00N 34°42' E 135°14'0 0.0
2018-Jun-03 17:30N 34°42' E 135°14'0 0.0
2018-Jun-03 17:00N 34°42' E 135°14'0 0.0
2018-Jun-03 16:30N 34°42' E 135°14'0 0.0
2018-Jun-03 16:00N 34°42' E 135°14'0 0.0
2018-Jun-03 15:30N 34°42' E 135°14'0 0.0
2018-Jun-03 15:00N 34°42' E 135°14'0 0.0
2018-Jun-03 14:30N 34°42' E 135°14'0 0.0
2018-Jun-03 14:00N 34°42' E 135°14'0 0.0
2018-Jun-03 13:24N 34°42' E 135°14'0 0.0
2018-Jun-03 13:00N 34°42' E 135°14'0 0.0
2018-Jun-03 12:30N 34°42' E 135°14'0 0.0
2018-Jun-03 12:00N 34°42' E 135°14'0 0.0
2018-Jun-03 11:30N 34°42' E 135°14'0 0.0
2018-Jun-03 11:00N 34°42' E 135°14'0 0.0
2018-Jun-03 10:30N 34°42' E 135°14'0 0.0
2018-Jun-03 10:00N 34°42' E 135°14'0 0.0
2018-Jun-03 09:30N 34°42' E 135°14'0 0.0
2018-Jun-03 09:00N 34°42' E 135°14'0 0.0
2018-Jun-03 08:30N 34°42' E 135°14'0 0.0
2018-Jun-03 08:00N 34°42' E 135°14'0 0.0
2018-Jun-03 07:30N 34°42' E 135°14'0 0.0
2018-Jun-03 07:00N 34°42' E 135°14'0 0.0
2018-Jun-03 06:30N 34°42' E 135°14'0 0.0
2018-Jun-03 06:00N 34°42' E 135°14'0 0.0
2018-Jun-03 05:30N 34°42' E 135°14'0 0.0
2018-Jun-03 05:00N 34°42' E 135°14'0 0.0
2018-Jun-03 04:30N 34°42' E 135°14'0 0.0
2018-Jun-03 04:00N 34°42' E 135°14'0 0.0
2018-Jun-03 03:30N 34°42' E 135°14'0 0.0
2018-Jun-03 03:00N 34°42' E 135°14'0 0.0
2018-Jun-03 02:30N 34°42' E 135°14'0 0.0
2018-Jun-03 02:00N 34°42' E 135°14'0 0.0
2018-Jun-03 01:30N 34°42' E 135°14'0 0.0
2018-Jun-03 01:00N 34°42' E 135°14'0 0.0
2018-Jun-03 00:30N 34°42' E 135°14'0 0.0
2018-Jun-03 00:00N 34°42' E 135°14'0 0.0
2018-Jun-02 23:30N 34°42' E 135°14'0 0.0
2018-Jun-02 23:00N 34°42' E 135°14'0 0.0
2018-Jun-02 22:30N 34°42' E 135°14'0 0.0
2018-Jun-02 22:00N 34°42' E 135°14'0 0.0
2018-Jun-02 21:30N 34°42' E 135°14'0 0.0
2018-Jun-02 21:00N 34°42' E 135°14'0 0.0
2018-Jun-02 20:30N 34°42' E 135°14'0 0.0
2018-Jun-02 20:00N 34°42' E 135°14'0 0.0
2018-Jun-02 19:30N 34°42' E 135°14'0 0.0
2018-Jun-02 19:00N 34°42' E 135°14'0 0.0
2018-Jun-02 18:30N 34°42' E 135°14'0 0.0
2018-Jun-02 18:00N 34°42' E 135°14'0 0.0
2018-Jun-02 17:30N 34°42' E 135°14'0 0.0
2018-Jun-02 17:00N 34°42' E 135°14'0 0.0
2018-Jun-02 16:30N 34°42' E 135°14'0 0.0
2018-Jun-02 16:00N 34°42' E 135°14'0 0.0
2018-Jun-02 15:30N 34°42' E 135°14'0 0.0
2018-Jun-02 15:00N 34°42' E 135°14'0 0.0
2018-Jun-02 14:30N 34°42' E 135°14'0 0.0
2018-Jun-02 14:00N 34°42' E 135°14'0 0.0
2018-Jun-02 13:27N 34°42' E 135°14'0 0.0
2018-Jun-02 13:00N 34°42' E 135°14'0 0.0
2018-Jun-02 12:30N 34°42' E 135°14'0 0.0
2018-Jun-02 12:00N 34°42' E 135°14'0 0.0
2018-Jun-02 11:30N 34°42' E 135°14'0 0.0
2018-Jun-02 11:00N 34°42' E 135°14'0 0.0
2018-Jun-02 10:30N 34°42' E 135°14'0 0.0
2018-Jun-02 10:00N 34°42' E 135°14'0 0.0
2018-Jun-02 09:30N 34°42' E 135°14'0 0.0
2018-Jun-02 09:00N 34°42' E 135°14'0 0.0
2018-Jun-02 08:30N 34°42' E 135°14'0 0.0
2018-Jun-02 07:57N 34°42' E 135°14'0 0.0
2018-Jun-02 07:30N 34°42' E 135°14'0 0.0
2018-Jun-02 07:00N 34°42' E 135°14'0 0.0
2018-Jun-02 06:30N 34°42' E 135°14'0 0.0
2018-Jun-02 06:00N 34°42' E 135°14'0 0.0
2018-Jun-02 05:30N 34°42' E 135°14'0 0.0
2018-Jun-02 04:54N 34°42' E 135°14'0 0.0
2018-Jun-02 04:30N 34°42' E 135°14'0 0.0
2018-Jun-02 04:00N 34°42' E 135°14'0 0.0
2018-Jun-02 03:30N 34°42' E 135°14'0 0.0
2018-Jun-02 03:00N 34°42' E 135°14'0 0.0
2018-Jun-02 02:30N 34°42' E 135°14'0 0.0
2018-Jun-02 01:57N 34°42' E 135°14'0 0.0
2018-Jun-02 01:30N 34°42' E 135°14'0 0.0
2018-Jun-02 01:00N 34°42' E 135°14'0 0.0
2018-Jun-02 00:30N 34°42' E 135°14'0 0.0
2018-Jun-02 00:00N 34°42' E 135°14'0 0.0
2018-Jun-01 23:30N 34°42' E 135°14'0 0.0
2018-Jun-01 23:00N 34°42' E 135°14'0 0.0
2018-Jun-01 22:30N 34°42' E 135°14'0 0.0
2018-Jun-01 22:00N 34°42' E 135°14'0 0.0
2018-Jun-01 21:30N 34°42' E 135°14'0 0.0
2018-Jun-01 21:00N 34°42' E 135°14'0 0.0
2018-Jun-01 20:30N 34°42' E 135°14'0 0.0
2018-Jun-01 20:00N 34°42' E 135°14'0 0.0
2018-Jun-01 19:30N 34°42' E 135°14'0 0.0
2018-Jun-01 19:00N 34°42' E 135°14'0 0.0
2018-Jun-01 18:30N 34°42' E 135°14'0 0.0
2018-Jun-01 18:00N 34°42' E 135°14'0 0.0
2018-Jun-01 17:30N 34°42' E 135°14'0 0.0
2018-Jun-01 17:00N 34°42' E 135°14'0 0.0
2018-Jun-01 16:30N 34°42' E 135°14'0 0.0
2018-Jun-01 16:00N 34°42' E 135°14'0 0.0
2018-Jun-01 15:30N 34°42' E 135°14'0 0.0
2018-Jun-01 15:00N 34°42' E 135°14'0 0.0
2018-Jun-01 14:30N 34°42' E 135°14'0 0.0
2018-Jun-01 14:00N 34°42' E 135°14'0 0.0
2018-Jun-01 13:30N 34°42' E 135°14'0 0.0
2018-Jun-01 13:00N 34°42' E 135°14'0 0.0
2018-Jun-01 12:30N 34°42' E 135°14'0 0.0
2018-Jun-01 12:00N 34°42' E 135°14'0 0.0
2018-Jun-01 11:30N 34°42' E 135°14'0 0.0
2018-Jun-01 11:00N 34°42' E 135°14'0 0.0
2018-Jun-01 10:24N 34°42' E 135°14'0 0.0
2018-Jun-01 10:00N 34°42' E 135°14'0 0.0
2018-Jun-01 09:21N 34°42' E 135°14'0 0.0
2018-Jun-01 08:54N 34°42' E 135°14'0 0.0
2018-Jun-01 08:24N 34°42' E 135°14'0 0.0
2018-Jun-01 08:00N 34°42' E 135°14'0 0.0
2018-Jun-01 07:30N 34°42' E 135°14'0 0.0
2018-Jun-01 07:00N 34°42' E 135°14'0 0.0
2018-Jun-01 06:30N 34°42' E 135°14'0 0.0
2018-Jun-01 06:00N 34°42' E 135°14'0 0.0
2018-Jun-01 05:30N 34°42' E 135°14'0 0.0
2018-Jun-01 05:00N 34°42' E 135°14'0 0.0
2018-Jun-01 04:30N 34°42' E 135°14'0 0.0
2018-Jun-01 04:00N 34°42' E 135°14'0 0.0
2018-Jun-01 03:30N 34°42' E 135°14'0 0.0
2018-Jun-01 03:00N 34°42' E 135°14'0 0.0
2018-Jun-01 02:30N 34°42' E 135°14'0 0.0
2018-Jun-01 02:00N 34°42' E 135°14'0 0.0
2018-Jun-01 01:30N 34°42' E 135°14'0 0.0
2018-Jun-01 01:00N 34°42' E 135°14'0 0.0
2018-Jun-01 00:30N 34°42' E 135°14'0 0.0
2018-Jun-01 00:00N 34°42' E 135°14'0 0.0
2018-May-31 23:30N 34°42' E 135°14'0 0.0
2018-May-31 23:00N 34°42' E 135°14'0 0.0
2018-May-31 22:30N 34°42' E 135°14'0 0.0
2018-May-31 22:00N 34°42' E 135°14'0 0.0
2018-May-31 21:30N 34°42' E 135°14'0 0.0
2018-May-31 21:00N 34°42' E 135°14'0 0.0
2018-May-31 20:30N 34°42' E 135°14'0 0.0
2018-May-31 20:00N 34°42' E 135°14'0 0.0
2018-May-31 19:30N 34°42' E 135°14'0 0.0
2018-May-31 19:00N 34°42' E 135°14'0 0.0
2018-May-31 18:30N 34°42' E 135°14'0 0.0
2018-May-31 18:00N 34°42' E 135°14'0 0.0
2018-May-31 17:30N 34°42' E 135°14'0 0.0
2018-May-31 17:00N 34°42' E 135°14'0 0.0
2018-May-31 16:30N 34°42' E 135°14'0 0.0
2018-May-31 16:00N 34°42' E 135°14'0 0.0
2018-May-31 15:30N 34°42' E 135°14'0 0.0
2018-May-31 15:00N 34°42' E 135°14'0 0.0
2018-May-31 14:24N 34°42' E 135°14'0 0.0
2018-May-31 14:00N 34°42' E 135°14'0 0.0
2018-May-31 13:30N 34°42' E 135°14'0 0.0
2018-May-31 13:00N 34°42' E 135°14'0 0.0
2018-May-31 12:30N 34°42' E 135°14'0 0.0
2018-May-31 12:00N 34°42' E 135°14'0 0.0
2018-May-31 11:30N 34°42' E 135°14'0 0.0
2018-May-31 11:00N 34°42' E 135°14'0 0.0
2018-May-31 10:30N 34°42' E 135°14'0 0.0
2018-May-31 10:00N 34°42' E 135°14'0 0.0
2018-May-31 09:30N 34°42' E 135°14'0 0.0
2018-May-31 09:00N 34°42' E 135°14'0 0.0
2018-May-31 08:30N 34°42' E 135°14'0 0.0
2018-May-31 08:00N 34°42' E 135°14'0 0.0
2018-May-31 07:30N 34°42' E 135°14'0 0.0
2018-May-31 07:00N 34°42' E 135°14'0 0.0
2018-May-31 06:30N 34°42' E 135°14'0 0.0
2018-May-31 06:00N 34°42' E 135°14'0 0.0
2018-May-31 05:30N 34°42' E 135°14'0 0.0
2018-May-31 05:00N 34°42' E 135°14'0 0.0
2018-May-31 04:30N 34°42' E 135°14'0 0.0
2018-May-31 04:00N 34°42' E 135°14'0 0.0
2018-May-31 03:30N 34°42' E 135°14'0 0.0
2018-May-31 03:00N 34°42' E 135°14'0 0.0
2018-May-31 02:30N 34°42' E 135°14'0 0.0
2018-May-31 02:00N 34°42' E 135°14'0 0.0
2018-May-31 01:30N 34°42' E 135°14'0 0.0
2018-May-31 01:00N 34°42' E 135°14'0 0.0
2018-May-31 00:30N 34°42' E 135°14'0 0.0
2018-May-31 00:00N 34°42' E 135°14'0 0.0
2018-May-30 23:30N 34°42' E 135°14'0 0.0
2018-May-30 23:00N 34°42' E 135°14'0 0.0
2018-May-30 22:30N 34°42' E 135°14'0 0.0
2018-May-30 22:00N 34°42' E 135°14'0 0.0
2018-May-30 21:30N 34°42' E 135°14'0 0.0
2018-May-30 21:00N 34°42' E 135°14'0 0.0
2018-May-30 20:30N 34°42' E 135°14'0 0.0
2018-May-30 20:00N 34°42' E 135°14'0 0.0
2018-May-30 19:30N 34°42' E 135°14'0 0.0
2018-May-30 19:00N 34°42' E 135°14'0 0.0
2018-May-30 18:30N 34°42' E 135°14'0 0.0
2018-May-30 18:00N 34°42' E 135°14'0 0.0
2018-May-30 17:24N 34°42' E 135°14'0 0.0
2018-May-30 17:00N 34°42' E 135°14'0 0.0
2018-May-30 16:30N 34°42' E 135°14'0 0.0
2018-May-30 16:00N 34°42' E 135°14'0 0.0
2018-May-30 15:30N 34°42' E 135°14'0 0.0
2018-May-30 15:00N 34°42' E 135°14'0 0.0
2018-May-30 14:30N 34°42' E 135°14'0 0.0
2018-May-30 14:00N 34°42' E 135°14'  

Dump ship's entire track history